createdAt,value
2023-01-12T00:04:03.479Z,8.80
2023-01-12T00:08:06.982Z,8.80
2023-01-12T00:12:11.869Z,8.80
2023-01-12T00:16:33.867Z,8.70
2023-01-12T00:20:36.717Z,8.70
2023-01-12T00:24:40.273Z,8.70
2023-01-12T00:28:44.433Z,8.70
2023-01-12T00:32:47.355Z,8.60
2023-01-12T00:36:50.198Z,8.60
2023-01-12T00:40:53.015Z,8.60
2023-01-12T00:45:14.737Z,8.60
2023-01-12T00:49:17.540Z,8.60
2023-01-12T00:53:20.365Z,8.60
2023-01-12T00:57:23.186Z,8.60
2023-01-12T01:01:27.502Z,8.60
2023-01-12T01:05:31.352Z,8.60
2023-01-12T01:09:34.134Z,8.60
2023-01-12T01:13:37.719Z,8.70
2023-01-12T01:17:41.858Z,8.70
2023-01-12T01:21:44.726Z,8.80
2023-01-12T01:25:47.552Z,8.80
2023-01-12T01:29:50.324Z,8.80
2023-01-12T01:33:54.780Z,8.80
2023-01-12T01:37:57.596Z,8.90
2023-01-12T01:42:01.179Z,8.90
2023-01-12T01:46:06.047Z,8.90
2023-01-12T01:50:14.864Z,8.90
2023-01-12T01:54:17.735Z,8.90
2023-01-12T01:58:23.417Z,9.00
2023-01-12T02:02:26.560Z,9.00
2023-01-12T02:06:31.674Z,9.00
2023-01-12T02:10:34.511Z,9.00
2023-01-12T02:14:54.582Z,9.00
2023-01-12T02:19:03.649Z,9.00
2023-01-12T02:23:20.747Z,9.00
2023-01-12T02:27:44.512Z,9.00
2023-01-12T02:31:52.315Z,9.00
2023-01-12T02:35:59.488Z,9.00
2023-01-12T02:40:04.800Z,9.00
2023-01-12T02:44:10.541Z,8.90
2023-01-12T02:48:17.018Z,8.90
2023-01-12T02:52:20.456Z,8.90
2023-01-12T02:56:24.500Z,8.90
2023-01-12T03:00:27.466Z,8.90
2023-01-12T03:04:32.690Z,8.90
2023-01-12T03:08:37.280Z,8.90
2023-01-12T03:12:41.059Z,8.90
2023-01-12T03:16:44.080Z,8.90
2023-01-12T03:20:51.147Z,8.90
2023-01-12T03:24:55.726Z,8.90
2023-01-12T03:29:02.549Z,8.90
2023-01-12T03:33:06.303Z,8.90
2023-01-12T03:37:12.950Z,8.90
2023-01-12T03:41:21.277Z,8.90
2023-01-12T03:45:28.001Z,8.90
2023-01-12T03:49:34.107Z,9.00
2023-01-12T03:53:38.642Z,9.00
2023-01-12T03:57:41.576Z,9.00
2023-01-12T04:01:44.611Z,9.00
2023-01-12T04:05:47.602Z,9.00
2023-01-12T04:09:51.822Z,9.00
2023-01-12T04:13:54.651Z,9.00
2023-01-12T04:17:57.483Z,9.00
2023-01-12T04:22:17.708Z,9.00
2023-01-12T04:26:21.945Z,9.00
2023-01-12T04:30:27.283Z,9.00
2023-01-12T04:34:30.123Z,9.00
2023-01-12T04:38:33.277Z,9.00
2023-01-12T04:42:54.954Z,9.10
2023-01-12T04:46:57.754Z,9.10
2023-01-12T04:51:00.861Z,9.10
2023-01-12T04:55:03.766Z,9.10
2023-01-12T04:59:09.857Z,9.10
2023-01-12T05:03:13.162Z,9.10
2023-01-12T05:07:16.292Z,9.10
2023-01-12T05:11:18.205Z,9.10
2023-01-12T05:15:22.673Z,9.10
2023-01-12T05:19:25.591Z,9.20
2023-01-12T05:23:28.390Z,9.20
2023-01-12T05:27:31.219Z,9.20
2023-01-12T05:31:36.050Z,9.20
2023-01-12T05:35:39.198Z,9.20
2023-01-12T05:39:42.501Z,9.20
2023-01-12T05:43:55.028Z,9.20
2023-01-12T05:48:00.457Z,9.20
2023-01-12T05:52:03.280Z,9.20
2023-01-12T05:56:09.451Z,9.20
2023-01-12T06:00:12.792Z,9.30
2023-01-12T06:04:17.005Z,9.30
2023-01-12T06:08:19.887Z,9.30
2023-01-12T06:12:40.397Z,9.30
2023-01-12T06:16:43.885Z,9.30
2023-01-12T06:20:48.000Z,9.30
2023-01-12T06:24:50.836Z,9.30
2023-01-12T06:28:53.628Z,9.30
2023-01-12T06:32:56.457Z,9.30
2023-01-12T06:37:00.615Z,9.30
2023-01-12T06:41:03.938Z,9.30
2023-01-12T06:45:07.291Z,9.20
2023-01-12T06:49:10.673Z,9.20
2023-01-12T06:53:15.113Z,9.20
2023-01-12T06:57:18.187Z,9.20
2023-01-12T07:01:21.137Z,9.20
2023-01-12T07:05:25.043Z,9.20
2023-01-12T07:09:29.253Z,9.20
2023-01-12T07:13:32.135Z,9.20
2023-01-12T07:17:35.007Z,9.20
2023-01-12T07:21:37.824Z,9.20
2023-01-12T07:25:41.979Z,9.10
2023-01-12T07:29:46.603Z,9.10
2023-01-12T07:33:51.978Z,9.00
2023-01-12T07:37:54.987Z,9.00
2023-01-12T07:42:16.679Z,9.00
2023-01-12T07:46:19.441Z,9.00
2023-01-12T07:50:22.286Z,9.00
2023-01-12T07:54:25.387Z,9.00
2023-01-12T07:58:30.922Z,9.00
2023-01-12T08:02:33.829Z,8.90
2023-01-12T08:06:36.626Z,8.90
2023-01-12T08:10:39.445Z,8.90
2023-01-12T08:14:43.588Z,8.90
2023-01-12T08:18:48.731Z,8.90
2023-01-12T08:22:52.599Z,8.90
2023-01-12T08:26:56.936Z,8.90
2023-01-12T08:31:01.391Z,8.90
2023-01-12T08:35:05.158Z,9.00
2023-01-12T08:39:08.059Z,8.90
2023-01-12T08:43:10.887Z,8.90
2023-01-12T08:47:19.168Z,8.90
2023-01-12T08:51:22.013Z,8.90
2023-01-12T08:55:24.786Z,9.00
2023-01-12T08:59:27.700Z,9.00
2023-01-12T09:03:31.865Z,9.00
2023-01-12T09:07:34.672Z,9.00
2023-01-12T09:11:38.370Z,9.00
2023-01-12T09:15:41.204Z,9.00
2023-01-12T09:19:49.858Z,9.10
2023-01-12T09:23:53.364Z,9.10
2023-01-12T09:27:56.282Z,9.10
2023-01-12T09:31:59.129Z,9.10
2023-01-12T09:36:04.544Z,9.10
2023-01-12T09:40:08.067Z,9.10
2023-01-12T09:44:33.954Z,9.10
2023-01-12T09:48:36.794Z,9.20
2023-01-12T09:52:42.543Z,9.20
2023-01-12T09:56:52.360Z,9.20
2023-01-12T10:00:56.545Z,9.20
2023-01-12T10:04:59.695Z,9.30
2023-01-12T10:09:05.630Z,9.30
2023-01-12T10:13:10.675Z,9.40
2023-01-12T10:17:23.893Z,9.50
2023-01-12T10:21:27.564Z,9.50
2023-01-12T10:25:35.921Z,9.60
2023-01-12T10:29:38.775Z,9.60
2023-01-12T10:34:01.624Z,9.70
2023-01-12T10:38:14.523Z,9.70
2023-01-12T10:42:38.205Z,9.80
2023-01-12T10:46:41.010Z,9.80
2023-01-12T10:50:43.840Z,9.90
2023-01-12T10:54:49.616Z,10.00
2023-01-12T10:58:58.841Z,10.00
2023-01-12T11:03:01.684Z,10.10
2023-01-12T11:07:10.196Z,10.10
2023-01-12T11:11:16.676Z,10.10
2023-01-12T11:15:21.146Z,10.20
2023-01-12T11:19:28.024Z,10.20
2023-01-12T11:23:33.988Z,10.30
2023-01-12T11:27:38.608Z,10.30
2023-01-12T11:31:43.538Z,10.30
2023-01-12T11:35:50.078Z,10.40
2023-01-12T11:39:55.933Z,10.40
2023-01-12T11:44:01.945Z,10.50
2023-01-12T11:48:12.679Z,10.50
2023-01-12T11:52:16.342Z,10.50
2023-01-12T11:56:23.454Z,10.60
2023-01-12T12:00:31.437Z,10.70
2023-01-12T12:04:42.958Z,10.70
2023-01-12T12:08:49.750Z,10.70
2023-01-12T12:13:07.432Z,10.80
2023-01-12T12:17:12.097Z,10.80
2023-01-12T12:21:22.544Z,10.90
2023-01-12T12:25:29.099Z,10.90
2023-01-12T12:29:40.951Z,10.90
2023-01-12T12:33:53.654Z,10.90
2023-01-12T12:38:04.481Z,10.90
2023-01-12T12:42:32.065Z,10.90
2023-01-12T12:46:41.076Z,10.90
2023-01-12T12:50:48.143Z,10.90
2023-01-12T12:54:52.961Z,11.00
2023-01-12T12:58:56.788Z,11.00
2023-01-12T13:03:00.155Z,11.00
2023-01-12T13:07:05.415Z,11.00
2023-01-12T13:11:10.019Z,11.00
2023-01-12T13:15:23.720Z,11.00
2023-01-12T13:19:34.169Z,11.00
2023-01-12T13:23:44.167Z,11.10
2023-01-12T13:27:55.721Z,11.10
2023-01-12T13:31:59.471Z,11.10
2023-01-12T13:36:03.897Z,11.10
2023-01-12T13:40:12.970Z,11.10
2023-01-12T13:44:21.157Z,11.10
2023-01-12T13:48:24.717Z,11.10
2023-01-12T13:52:29.681Z,11.10
2023-01-12T13:56:32.790Z,11.10
2023-01-12T14:00:37.074Z,11.10
2023-01-12T14:04:46.113Z,11.10
2023-01-12T14:08:52.645Z,11.10
2023-01-12T14:13:16.200Z,11.10
2023-01-12T14:17:41.385Z,11.10
2023-01-12T14:21:45.280Z,11.10
2023-01-12T14:25:48.694Z,11.10
2023-01-12T14:29:51.694Z,11.10
2023-01-12T14:33:57.121Z,11.10
2023-01-12T14:38:01.285Z,11.10
2023-01-12T14:42:22.392Z,11.10
2023-01-12T14:46:27.327Z,11.10
2023-01-12T14:50:31.523Z,11.10
2023-01-12T14:54:35.137Z,11.10
2023-01-12T14:58:38.461Z,11.10
2023-01-12T15:02:41.709Z,11.00
2023-01-12T15:06:46.493Z,11.10
2023-01-12T15:10:56.960Z,11.00
2023-01-12T15:15:13.598Z,11.00
2023-01-12T15:19:34.074Z,11.00
2023-01-12T15:23:56.057Z,11.00
2023-01-12T15:27:58.830Z,11.00
2023-01-12T15:32:01.741Z,11.00
2023-01-12T15:36:06.729Z,11.00
2023-01-12T15:40:13.400Z,11.10
2023-01-12T15:44:16.912Z,11.00
2023-01-12T15:48:19.714Z,11.00
2023-01-12T15:52:23.372Z,11.00
2023-01-12T15:56:27.634Z,11.00
2023-01-12T16:00:30.983Z,11.00
2023-01-12T16:04:42.551Z,11.00
2023-01-12T16:08:46.184Z,11.00
2023-01-12T16:12:50.469Z,11.00
2023-01-12T16:16:53.311Z,11.00
2023-01-12T16:20:58.349Z,11.00
2023-01-12T16:25:01.180Z,11.00
2023-01-12T16:29:05.371Z,11.00
2023-01-12T16:33:08.207Z,11.00
2023-01-12T16:37:12.968Z,11.00
2023-01-12T16:41:18.863Z,11.00
2023-01-12T16:45:23.022Z,11.00
2023-01-12T16:49:25.886Z,11.00
2023-01-12T16:53:28.714Z,11.00
2023-01-12T16:57:31.548Z,11.10
2023-01-12T17:01:36.663Z,11.00
2023-01-12T17:05:41.180Z,11.00
2023-01-12T17:09:44.328Z,11.00
2023-01-12T17:13:52.084Z,11.00
2023-01-12T17:17:56.397Z,11.00
2023-01-12T17:22:01.516Z,11.00
2023-01-12T17:26:05.162Z,11.00
2023-01-12T17:30:09.037Z,11.00
2023-01-12T17:34:13.924Z,11.00
2023-01-12T17:38:16.713Z,11.00
2023-01-12T17:42:37.439Z,11.00
2023-01-12T17:46:40.337Z,11.00
2023-01-12T17:50:44.609Z,11.00
2023-01-12T17:54:47.532Z,11.00
2023-01-12T17:58:50.853Z,11.00
2023-01-12T18:02:53.703Z,11.00
2023-01-12T18:06:58.050Z,10.90
2023-01-12T18:11:02.072Z,10.90
2023-01-12T18:15:05.157Z,10.90
2023-01-12T18:19:10.143Z,10.90
2023-01-12T18:23:14.337Z,10.90
2023-01-12T18:27:17.120Z,10.90
2023-01-12T18:31:21.183Z,10.90
2023-01-12T18:35:24.029Z,10.90
2023-01-12T18:39:28.358Z,10.90
2023-01-12T18:43:31.259Z,10.90
2023-01-12T18:47:51.772Z,10.90
2023-01-12T18:52:12.027Z,10.90
2023-01-12T18:56:16.408Z,10.90
2023-01-12T19:00:19.587Z,10.90
2023-01-12T19:04:31.784Z,10.90
2023-01-12T19:08:52.157Z,10.90
2023-01-12T19:13:17.535Z,10.90
2023-01-12T19:17:29.769Z,10.90
2023-01-12T19:21:50.271Z,10.90
2023-01-12T19:26:07.005Z,10.90
2023-01-12T19:30:12.987Z,10.90
2023-01-12T19:34:15.769Z,10.90
2023-01-12T19:38:18.552Z,10.90
2023-01-12T19:42:38.675Z,10.90
2023-01-12T19:46:42.987Z,10.90
2023-01-12T19:50:45.912Z,10.90
2023-01-12T19:54:48.759Z,10.90
2023-01-12T19:58:51.794Z,10.90
2023-01-12T20:02:56.093Z,10.90
2023-01-12T20:06:59.708Z,10.90
2023-01-12T20:11:05.250Z,10.90
2023-01-12T20:15:10.594Z,10.80
2023-01-12T20:19:14.785Z,10.80
2023-01-12T20:23:19.977Z,10.80
2023-01-12T20:27:22.829Z,10.80
2023-01-12T20:31:25.740Z,10.80
2023-01-12T20:35:30.013Z,10.80
2023-01-12T20:39:32.942Z,10.80
2023-01-12T20:43:35.830Z,10.80
2023-01-12T20:47:38.663Z,10.80
2023-01-12T20:51:42.845Z,10.80
2023-01-12T20:55:46.281Z,10.80
2023-01-12T20:59:49.221Z,10.80
2023-01-12T21:03:52.344Z,10.80
2023-01-12T21:08:07.386Z,10.80
2023-01-12T21:12:11.190Z,10.80
2023-01-12T21:16:14.731Z,10.80
2023-01-12T21:20:17.930Z,10.70
2023-01-12T21:24:22.055Z,10.80
2023-01-12T21:28:24.888Z,10.80
2023-01-12T21:32:29.123Z,10.80
2023-01-12T21:36:32.222Z,10.70
2023-01-12T21:40:36.553Z,10.70
2023-01-12T21:44:39.320Z,10.80
2023-01-12T21:48:42.142Z,10.70
2023-01-12T21:52:45.061Z,10.70
2023-01-12T21:56:50.457Z,10.80
2023-01-12T22:00:53.884Z,10.80
2023-01-12T22:04:56.790Z,10.80
2023-01-12T22:08:59.739Z,10.80
2023-01-12T22:13:06.476Z,10.80
2023-01-12T22:17:10.688Z,10.80
2023-01-12T22:21:13.884Z,10.90
2023-01-12T22:25:17.370Z,10.80
2023-01-12T22:29:22.014Z,10.80
2023-01-12T22:33:24.872Z,10.80
2023-01-12T22:37:28.185Z,10.90
2023-01-12T22:41:31.098Z,10.90
2023-01-12T22:45:37.756Z,10.90
2023-01-12T22:53:58.146Z,11.00
2023-01-12T22:58:01.205Z,10.90
2023-01-12T23:02:25.628Z,10.90
2023-01-12T23:06:29.020Z,10.90
2023-01-12T23:10:32.529Z,10.90
2023-01-12T23:14:35.642Z,11.00
2023-01-12T23:18:40.712Z,11.00
2023-01-12T23:22:43.747Z,11.00
2023-01-12T23:26:46.785Z,11.00
2023-01-12T23:30:49.814Z,11.00
2023-01-12T23:34:54.145Z,11.00
2023-01-12T23:38:58.640Z,11.00
2023-01-12T23:43:01.797Z,11.00
2023-01-12T23:47:05.224Z,11.00
2023-01-12T23:51:09.985Z,11.00
2023-01-12T23:55:12.964Z,11.00
2023-01-12T23:59:15.954Z,11.10
